Time;durP1;ratioP1;P1;durP2;ratioP2;P2;SDS_P1;SDS_P2;PMS_P1;PMS_P2;Temp;Humidity;BMP_temperature;BMP_pressure;BME280_temperature;BME280_humidity;BME280_pressure;Samples;Min_cycle;Max_cycle;Signal;HPM_P1;HPM_P2
2022/04/28 00:01:14;;;;;;;;;;;;;;;-143.90;100.00;55182.69;2095553;28;19989;-65
2022/04/28 00:02:35;;;;;;;;;;;;;;;-143.90;100.00;55208.50;2097674;28;19931;-65
2022/04/28 00:03:56;;;;;;;;;;;;;;;-143.90;100.00;55182.69;2098310;28;20007;-65
2022/04/28 00:05:17;;;;;;;;;;;;;;;-143.90;100.00;55184.69;2096582;28;20062;-66
2022/04/28 00:06:38;;;;;;;;;;;;;;;-143.90;100.00;55210.50;2097283;28;19919;-64
2022/04/28 00:07:59;;;;;;;;;;;;;;;-143.90;100.00;55198.59;2096624;28;19924;-63
2022/04/28 00:09:19;;;;;;;;;;;;;;;-143.90;100.00;55158.88;2096462;28;20011;-63
2022/04/28 00:10:40;;;;;;;;;;;;;;;-143.90;100.00;55206.53;2097906;28;19959;-63
2022/04/28 00:12:00;;;;;;;;;;;;;;;-143.90;100.00;55198.59;2096392;28;19935;-63
2022/04/28 00:13:21;;;;;;;;;;;;;;;-143.90;100.00;55216.47;2095560;28;19928;-63
2022/04/28 00:14:43;;;;;;;;;;;;;;;-143.90;100.00;55186.69;2097748;28;19924;-63
2022/04/28 00:16:04;;;;;;;;;;;;;;;-143.90;100.00;55206.53;2095287;28;19946;-63
2022/04/28 00:17:25;;;;;;;;;;;;;;;-143.90;100.00;55200.56;2095755;28;20304;-63
2022/04/28 00:18:46;;;;;;;;;;;;;;;-143.90;100.00;55154.91;2097090;28;20569;-63
2022/04/28 00:20:07;;;;;;;;;;;;;;;-143.90;100.00;55198.59;2098192;28;19927;-63
2022/04/28 00:21:27;;;;;;;;;;;;;;;-143.90;100.00;55143.00;2097371;28;19935;-63
2022/04/28 00:22:48;;;;;;;;;;;;;;;-143.90;100.00;55206.53;2097202;28;19920;-63
2022/04/28 00:24:09;;;;;;;;;;;;;;;-143.90;100.00;55186.69;2095842;28;21366;-64
2022/04/28 00:25:29;;;;;;;;;;;;;;;-143.90;100.00;55178.72;2097524;28;19964;-63
2022/04/28 00:26:50;;;;;;;;;;;;;;;-143.90;100.00;55170.78;2096586;28;20018;-63
2022/04/28 00:28:10;;;;;;;;;;;;;;;-143.90;100.00;55204.53;2095845;28;19920;-64
2022/04/28 00:29:31;;;;;;;;;;;;;;;-143.90;100.00;55158.88;2097377;28;19924;-63
2022/04/28 00:30:52;;;;;;;;;;;;;;;-143.90;100.00;55168.81;2095439;28;20019;-63
2022/04/28 00:32:12;;;;;;;;;;;;;;;-143.90;100.00;55226.38;2096127;28;20061;-63
2022/04/28 00:33:33;;;;;;;;;;;;;;;-143.90;100.00;55176.75;2096294;28;20001;-63
2022/04/28 00:34:54;;;;;;;;;;;;;;;-143.90;100.00;55194.63;2096505;28;19923;-64
2022/04/28 00:36:14;;;;;;;;;;;;;;;-143.90;100.00;55192.63;2092629;28;20469;-64
2022/04/28 00:37:36;;;;;;;;;;;;;;;-143.90;100.00;55182.69;2098646;28;20007;-64
2022/04/28 00:38:57;;;;;;;;;;;;;;;-143.90;100.00;55230.34;2097420;28;19920;-63
2022/04/28 00:40:18;;;;;;;;;;;;;;;-143.90;100.00;55190.66;2088363;28;19963;-63
2022/04/28 00:41:39;;;;;;;;;;;;;;;-143.90;100.00;55182.69;2094738;28;19931;-63
2022/04/28 00:44:39;;;;;;;;;;;;;;;-143.90;100.00;55190.66;2088191;28;19924;-63
2022/04/28 00:45:59;;;;;;;;;;;;;;;-143.90;100.00;55208.50;2093888;28;19924;-63
2022/04/28 00:47:22;;;;;;;;;;;;;;;-143.90;100.00;55174.75;2088160;28;19920;-64
2022/04/28 00:50:41;;;;;;;;;;;;;;;-143.90;100.00;55222.41;2095783;28;20493;-64
2022/04/28 00:52:02;;;;;;;;;;;;;;;-143.90;100.00;55182.69;2095897;28;20054;-63
2022/04/28 00:53:23;;;;;;;;;;;;;;;-143.90;100.00;55160.84;2096952;28;19920;-63
2022/04/28 00:54:44;;;;;;;;;;;;;;;-143.90;100.00;55174.75;2086898;28;19931;-63
2022/04/28 00:56:05;;;;;;;;;;;;;;;-143.90;100.00;55206.53;2085966;28;20300;-63
2022/04/28 00:57:26;;;;;;;;;;;;;;;-143.90;100.00;55182.69;2093855;28;19924;-64
2022/04/28 00:58:48;;;;;;;;;;;;;;;-143.90;100.00;55168.81;2088143;28;19927;-63
2022/04/28 01:00:09;;;;;;;;;;;;;;;-143.90;100.00;55202.56;2085892;28;19936;-63
2022/04/28 01:01:30;;;;;;;;;;;;;;;-143.90;100.00;55172.78;2080145;28;19944;-63
2022/04/28 01:02:51;;;;;;;;;;;;;;;-143.90;100.00;55178.72;2090060;28;19926;-63
2022/04/28 01:04:12;;;;;;;;;;;;;;;-143.90;100.00;55174.75;2086499;28;19931;-64
2022/04/28 01:05:33;;;;;;;;;;;;;;;-143.90;100.00;55198.59;2091941;28;20340;-63
2022/04/28 01:06:54;;;;;;;;;;;;;;;-143.90;100.00;55194.63;2099077;28;19920;-63
2022/04/28 01:08:15;;;;;;;;;;;;;;;-143.90;100.00;55200.56;2088129;28;19927;-63
2022/04/28 01:09:37;;;;;;;;;;;;;;;-143.90;100.00;55190.66;2092965;28;20010;-63
2022/04/28 01:11:01;;;;;;;;;;;;;;;-143.90;100.00;55190.66;2087957;28;19932;-63
2022/04/28 01:12:24;;;;;;;;;;;;;;;-143.90;100.00;55198.59;2092268;28;19924;-63
2022/04/28 01:13:46;;;;;;;;;;;;;;;-143.90;100.00;55206.53;2087081;28;19926;-63
2022/04/28 01:15:18;;;;;;;;;;;;;;;-143.90;100.00;55178.72;2087334;28;19920;-64
2022/04/28 01:16:39;;;;;;;;;;;;;;;-143.90;100.00;55202.56;2086806;28;20007;-64
2022/04/28 01:18:00;;;;;;;;;;;;;;;-143.90;100.00;55202.56;2085871;28;19924;-63
2022/04/28 01:19:21;;;;;;;;;;;;;;;-143.90;100.00;55186.69;2091855;28;19942;-63
2022/04/28 01:20:42;;;;;;;;;;;;;;;-143.90;100.00;55182.69;2096953;28;19965;-63
2022/04/28 01:22:04;;;;;;;;;;;;;;;-143.90;100.00;55182.69;2092446;28;19999;-63
2022/04/28 01:23:25;;;;;;;;;;;;;;;-143.90;100.00;55172.78;2087587;28;19920;-63
2022/04/28 01:24:46;;;;;;;;;;;;;;;-143.90;100.00;55192.63;2096471;28;19927;-63
2022/04/28 01:26:07;;;;;;;;;;;;;;;-143.90;100.00;55204.53;2087042;28;19934;-63
2022/04/28 01:27:29;;;;;;;;;;;;;;;-143.90;100.00;55188.66;2085818;28;19921;-64
2022/04/28 01:28:49;;;;;;;;;;;;;;;-143.90;100.00;55178.72;2087636;28;19924;-63
2022/04/28 01:30:11;;;;;;;;;;;;;;;-143.90;100.00;55188.66;2094829;28;19939;-63
2022/04/28 01:31:32;;;;;;;;;;;;;;;-143.90;100.00;55156.88;2089594;28;19967;-63
2022/04/28 01:32:57;;;;;;;;;;;;;;;-143.90;100.00;55158.88;2092065;28;20325;-63
2022/04/28 01:34:18;;;;;;;;;;;;;;;-143.90;100.00;55220.44;2087855;28;20374;-63
2022/04/28 01:35:39;;;;;;;;;;;;;;;-143.90;100.00;55146.97;2093979;28;19924;-63
2022/04/28 01:37:00;;;;;;;;;;;;;;;-143.90;100.00;55206.53;2096890;28;19978;-63
2022/04/28 01:38:21;;;;;;;;;;;;;;;-143.90;100.00;55194.63;2088321;28;19920;-64
2022/04/28 01:39:41;;;;;;;;;;;;;;;-143.90;100.00;55182.69;2087160;28;19966;-64
2022/04/28 01:41:02;;;;;;;;;;;;;;;-143.90;100.00;55194.63;2084914;28;19924;-63
2022/04/28 01:42:24;;;;;;;;;;;;;;;-143.90;100.00;55222.41;2086698;28;20375;-63
2022/04/28 01:43:45;;;;;;;;;;;;;;;-143.90;100.00;55186.69;2085454;28;19992;-63
2022/04/28 01:45:08;;;;;;;;;;;;;;;-143.90;100.00;55164.84;2092599;28;19981;-63
2022/04/28 01:46:41;;;;;;;;;;;;;;;-143.90;100.00;55182.69;2090714;28;19964;-63
2022/04/28 01:48:23;;;;;;;;;;;;;;;-143.90;100.00;55154.91;2094067;28;19944;-63
2022/04/28 01:50:03;;;;;;;;;;;;;;;-143.90;100.00;55188.66;2089461;28;19920;-63
2022/04/28 01:55:34;;;;;;;;;;;;;;;-143.90;100.00;55143.00;2094255;28;19924;-63
2022/04/28 01:57:10;;;;;;;;;;;;;;;-143.90;100.00;55146.97;2096771;28;20299;-63
2022/04/28 01:58:46;;;;;;;;;;;;;;;-143.90;100.00;55156.88;2086898;28;20035;-63
2022/04/28 02:00:31;;;;;;;;;;;;;;;-143.90;100.00;55166.81;2076563;28;20056;-63
2022/04/28 02:01:59;;;;;;;;;;;;;;;-143.90;100.00;55174.75;2086902;28;19956;-63
2022/04/28 02:03:20;;;;;;;;;;;;;;;-143.90;100.00;55186.69;2083981;28;20395;-63
2022/04/28 02:04:41;;;;;;;;;;;;;;;-143.90;100.00;55166.81;2085707;28;20702;-63
2022/04/28 02:06:02;;;;;;;;;;;;;;;-143.90;100.00;55196.59;2085928;28;19920;-63
2022/04/28 02:07:23;;;;;;;;;;;;;;;-143.90;100.00;55166.81;2086093;28;20066;-63
2022/04/28 02:08:45;;;;;;;;;;;;;;;-143.90;100.00;55162.84;2089281;28;19927;-63
2022/04/28 02:10:07;;;;;;;;;;;;;;;-143.90;100.00;55188.66;2094896;28;19991;-64
2022/04/28 02:11:28;;;;;;;;;;;;;;;-143.90;100.00;55214.47;2089020;28;19934;-64
2022/04/28 02:13:07;;;;;;;;;;;;;;;-143.90;100.00;55186.69;2097210;28;19920;-63
2022/04/28 02:14:27;;;;;;;;;;;;;;;-143.90;100.00;55194.63;2095978;28;20031;-63
2022/04/28 02:16:10;;;;;;;;;;;;;;;-143.90;100.00;55174.75;2095022;28;19920;-63
2022/04/28 02:17:49;;;;;;;;;;;;;;;-143.90;100.00;55146.97;2088744;28;19929;-63
2022/04/28 02:19:09;;;;;;;;;;;;;;;-143.90;100.00;55174.75;2094585;28;20027;-63
2022/04/28 02:20:31;;;;;;;;;;;;;;;-143.90;100.00;55210.50;2088566;28;20032;-63
2022/04/28 02:21:52;;;;;;;;;;;;;;;-143.90;100.00;55190.66;2093443;28;19943;-63
2022/04/28 02:23:12;;;;;;;;;;;;;;;-143.90;100.00;55170.78;2087739;28;19928;-63
2022/04/28 02:24:33;;;;;;;;;;;;;;;-143.90;100.00;55162.84;2094193;28;20031;-63
2022/04/28 02:25:54;;;;;;;;;;;;;;;-143.90;100.00;55174.75;2089177;28;19935;-63
2022/04/28 02:27:15;;;;;;;;;;;;;;;-143.90;100.00;55190.66;2085374;28;19931;-63
2022/04/28 02:28:36;;;;;;;;;;;;;;;-143.90;100.00;55182.69;2093595;28;19924;-63
2022/04/28 02:29:57;;;;;;;;;;;;;;;-143.90;100.00;55182.69;2088269;28;19938;-63
2022/04/28 02:31:17;;;;;;;;;;;;;;;-143.90;100.00;55202.56;2091733;28;19920;-63
2022/04/28 02:34:19;;;;;;;;;;;;;;;-143.90;100.00;55168.81;2095068;28;19925;-63
2022/04/28 02:35:44;;;;;;;;;;;;;;;-143.90;100.00;55212.50;2086807;28;19970;-63
2022/04/28 02:37:05;;;;;;;;;;;;;;;-143.90;100.00;55156.88;2088253;28;19920;-63
2022/04/28 02:38:26;;;;;;;;;;;;;;;-143.90;100.00;55166.81;2085679;28;19920;-63
2022/04/28 02:39:48;;;;;;;;;;;;;;;-143.90;100.00;55182.69;2084315;28;19920;-61
2022/04/28 02:41:10;;;;;;;;;;;;;;;-143.90;100.00;55174.75;2086351;28;19981;-63
2022/04/28 02:42:31;;;;;;;;;;;;;;;-143.90;100.00;55148.94;2093016;28;20511;-63
2022/04/28 02:43:52;;;;;;;;;;;;;;;-143.90;100.00;55190.66;2089378;28;19927;-63
2022/04/28 02:45:12;;;;;;;;;;;;;;;-143.90;100.00;55182.69;2087843;28;20027;-63
2022/04/28 02:46:42;;;;;;;;;;;;;;;-143.90;100.00;55152.91;2087571;28;20036;-63
2022/04/28 02:48:04;;;;;;;;;;;;;;;-143.90;100.00;55127.09;2087126;28;19920;-63
2022/04/28 02:49:25;;;;;;;;;;;;;;;-143.90;100.00;55194.63;2085078;28;19916;-63
2022/04/28 02:50:48;;;;;;;;;;;;;;;-143.90;100.00;55150.94;2087913;28;20599;-63
2022/04/28 02:52:09;;;;;;;;;;;;;;;-143.90;100.00;55154.91;2092718;28;19989;-63
2022/04/28 02:53:32;;;;;;;;;;;;;;;-143.90;100.00;55190.66;2087158;28;19920;-63
2022/04/28 02:54:52;;;;;;;;;;;;;;;-143.90;100.00;55150.94;2087717;28;20038;-63
2022/04/28 02:56:14;;;;;;;;;;;;;;;-143.90;100.00;55160.84;2085660;28;19920;-63
2022/04/28 02:57:34;;;;;;;;;;;;;;;-143.90;100.00;55172.78;2092028;28;19936;-63
2022/04/28 02:58:57;;;;;;;;;;;;;;;-143.90;100.00;55150.94;2086170;28;20603;-63
2022/04/28 03:00:17;;;;;;;;;;;;;;;-143.90;100.00;55188.66;2090111;28;19925;-63
2022/04/28 03:01:51;;;;;;;;;;;;;;;-143.90;100.00;55150.94;2090980;28;20564;-63
2022/04/28 03:03:13;;;;;;;;;;;;;;;-143.90;100.00;55178.72;2092878;28;19944;-63
2022/04/28 03:04:34;;;;;;;;;;;;;;;-143.90;100.00;55210.50;2088170;28;20610;-63
2022/04/28 03:11:03;;;;;;;;;;;;;;;-143.90;100.00;55172.78;2097354;28;19920;-63
2022/04/28 03:12:24;;;;;;;;;;;;;;;-143.90;100.00;55198.59;2098182;28;20669;-63
2022/04/28 03:13:58;;;;;;;;;;;;;;;-143.90;100.00;55154.91;2089042;28;19940;-63
2022/04/28 03:15:20;;;;;;;;;;;;;;;-143.90;100.00;55198.59;2087751;28;20471;-63
2022/04/28 03:16:42;;;;;;;;;;;;;;;-143.90;100.00;55178.72;2092225;28;19928;-63
2022/04/28 03:18:02;;;;;;;;;;;;;;;-143.90;100.00;55146.97;2087008;28;20023;-64
2022/04/28 03:19:23;;;;;;;;;;;;;;;-143.90;100.00;55154.91;2091039;28;19926;-64
2022/04/28 03:20:44;;;;;;;;;;;;;;;-143.90;100.00;55182.69;2089381;28;19928;-63
2022/04/28 03:22:05;;;;;;;;;;;;;;;-143.90;100.00;55137.03;2094000;28;20407;-63
2022/04/28 03:23:26;;;;;;;;;;;;;;;-143.90;100.00;55170.78;2087732;28;19927;-63
2022/04/28 03:24:47;;;;;;;;;;;;;;;-143.90;100.00;55166.81;2086114;28;19924;-63
2022/04/28 03:26:08;;;;;;;;;;;;;;;-143.90;100.00;55162.84;2085519;28;19921;-63
2022/04/28 03:27:31;;;;;;;;;;;;;;;-143.90;100.00;55174.75;2085311;28;19920;-63
2022/04/28 03:28:52;;;;;;;;;;;;;;;-143.90;100.00;55186.69;2087162;28;19956;-63
2022/04/28 03:30:12;;;;;;;;;;;;;;;-143.90;100.00;55180.72;2086006;28;19924;-63
2022/04/28 03:31:51;;;;;;;;;;;;;;;-143.90;100.00;55176.75;2097254;28;19924;-63
2022/04/28 03:33:29;;;;;;;;;;;;;;;-143.90;100.00;55186.69;2088364;28;19931;-63
2022/04/28 03:34:50;;;;;;;;;;;;;;;-143.90;100.00;55162.84;2088941;28;19920;-63
2022/04/28 03:37:51;;;;;;;;;;;;;;;-143.90;100.00;55135.03;2097069;28;20038;-63
2022/04/28 03:39:12;;;;;;;;;;;;;;;-143.90;100.00;55170.78;2088181;28;19934;-63
2022/04/28 03:40:33;;;;;;;;;;;;;;;-143.90;100.00;55154.91;2094615;28;19939;-63
2022/04/28 03:41:53;;;;;;;;;;;;;;;-143.90;100.00;55154.91;2089219;28;19947;-63
2022/04/28 03:43:14;;;;;;;;;;;;;;;-143.90;100.00;55158.88;2086159;28;19951;-63
2022/04/28 03:44:35;;;;;;;;;;;;;;;-143.90;100.00;55135.03;2096401;28;20099;-63
2022/04/28 03:45:56;;;;;;;;;;;;;;;-143.90;100.00;55198.59;2089267;28;19921;-63
2022/04/28 03:47:16;;;;;;;;;;;;;;;-143.90;100.00;55186.69;2089113;28;20101;-63
2022/04/28 03:48:37;;;;;;;;;;;;;;;-143.90;100.00;55150.94;2090576;28;20525;-64
2022/04/28 03:49:58;;;;;;;;;;;;;;;-143.90;100.00;55154.91;2097270;28;20299;-63
2022/04/28 03:51:20;;;;;;;;;;;;;;;-143.90;100.00;55158.88;2089959;28;19977;-64
2022/04/28 03:52:40;;;;;;;;;;;;;;;-143.90;100.00;55158.88;2094988;28;19927;-63
2022/04/28 03:54:01;;;;;;;;;;;;;;;-143.90;100.00;55166.81;2092260;28;20041;-64
2022/04/28 03:55:26;;;;;;;;;;;;;;;-143.90;100.00;55170.78;2086670;28;20962;-63
2022/04/28 03:56:47;;;;;;;;;;;;;;;-143.90;100.00;55206.53;2086965;28;19931;-63
2022/04/28 03:58:08;;;;;;;;;;;;;;;-143.90;100.00;55139.03;2095490;28;19920;-63
2022/04/28 03:59:29;;;;;;;;;;;;;;;-143.90;100.00;55158.88;2087776;28;19925;-64
2022/04/28 04:01:08;;;;;;;;;;;;;;;-143.90;100.00;55174.75;2096461;28;19923;-63
2022/04/28 04:02:49;;;;;;;;;;;;;;;-143.90;100.00;55152.91;2096458;28;19993;-63
2022/04/28 04:04:10;;;;;;;;;;;;;;;-143.90;100.00;55131.06;2088532;28;19924;-63
2022/04/28 04:05:36;;;;;;;;;;;;;;;-143.90;100.00;55154.91;2087260;28;19921;-63
2022/04/28 04:06:57;;;;;;;;;;;;;;;-143.90;100.00;55119.16;2085984;28;20007;-63
2022/04/28 04:08:38;;;;;;;;;;;;;;;-143.90;100.00;55180.72;2095963;28;20466;-63
2022/04/28 04:10:07;;;;;;;;;;;;;;;-143.90;100.00;55174.75;2088858;28;20077;-64
2022/04/28 04:11:31;;;;;;;;;;;;;;;-143.90;100.00;55143.00;2088161;28;19921;-63
2022/04/28 04:12:51;;;;;;;;;;;;;;;-143.90;100.00;55150.94;2093480;28;19919;-63
2022/04/28 04:14:12;;;;;;;;;;;;;;;-143.90;100.00;55172.78;2097131;28;19916;-63
2022/04/28 04:15:34;;;;;;;;;;;;;;;-143.90;100.00;55182.69;2088455;28;19920;-63
2022/04/28 04:16:54;;;;;;;;;;;;;;;-143.90;100.00;55156.88;2094167;28;19959;-63
2022/04/28 04:18:20;;;;;;;;;;;;;;;-143.90;100.00;55146.97;2088880;28;19927;-63
2022/04/28 04:19:48;;;;;;;;;;;;;;;-143.90;100.00;55198.59;2093135;28;19955;-63
2022/04/28 04:21:09;;;;;;;;;;;;;;;-143.90;100.00;55129.09;2088440;28;20129;-63
2022/04/28 04:22:30;;;;;;;;;;;;;;;-143.90;100.00;55182.69;2088560;28;19921;-63
2022/04/28 04:23:51;;;;;;;;;;;;;;;-143.90;100.00;55131.06;2090996;28;20534;-63
2022/04/28 04:25:12;;;;;;;;;;;;;;;-143.90;100.00;55182.69;2086549;28;19921;-63
2022/04/28 04:26:33;;;;;;;;;;;;;;;-143.90;100.00;55170.78;2083592;28;19952;-63
2022/04/28 04:27:54;;;;;;;;;;;;;;;-143.90;100.00;55131.06;2083919;28;19924;-63
2022/04/28 04:29:33;;;;;;;;;;;;;;;-143.90;100.00;55154.91;2095040;28;20492;-63
2022/04/28 04:33:03;;;;;;;;;;;;;;;-143.90;100.00;55172.78;2089732;28;20852;-63
2022/04/28 04:34:25;;;;;;;;;;;;;;;-143.90;100.00;55172.78;2083651;28;19932;-63
2022/04/28 04:35:47;;;;;;;;;;;;;;;-143.90;100.00;55166.81;2088994;28;19974;-63
2022/04/28 04:37:08;;;;;;;;;;;;;;;-143.90;100.00;55158.88;2086873;28;19924;-63
2022/04/28 04:38:28;;;;;;;;;;;;;;;-143.90;100.00;55127.09;2095387;28;19920;-63
2022/04/28 04:39:49;;;;;;;;;;;;;;;-143.90;100.00;55154.91;2088716;28;20443;-63
2022/04/28 04:41:11;;;;;;;;;;;;;;;-143.90;100.00;55158.88;2086108;28;20023;-64
2022/04/28 04:42:32;;;;;;;;;;;;;;;-143.90;100.00;55172.78;2092826;28;19921;-63
2022/04/28 04:43:54;;;;;;;;;;;;;;;-143.90;100.00;55178.72;2088587;28;20374;-63
2022/04/28 04:45:15;;;;;;;;;;;;;;;-143.90;100.00;55133.06;2094119;28;19935;-63
2022/04/28 04:47:05;;;;;;;;;;;;;;;-143.90;100.00;55192.63;2079837;28;20015;-63
2022/04/28 04:48:28;;;;;;;;;;;;;;;-143.90;100.00;55143.00;2090596;28;19920;-64
2022/04/28 04:49:52;;;;;;;;;;;;;;;-143.90;100.00;55194.63;2095292;28;19920;-64
2022/04/28 04:51:19;;;;;;;;;;;;;;;-143.90;100.00;55143.00;2088708;28;19980;-63
2022/04/28 04:52:57;;;;;;;;;;;;;;;-143.90;100.00;55154.91;2087998;28;20007;-64
2022/04/28 04:54:21;;;;;;;;;;;;;;;-143.90;100.00;55143.00;2085994;28;20257;-63
2022/04/28 04:55:44;;;;;;;;;;;;;;;-143.90;100.00;55133.06;2085798;28;20415;-63
2022/04/28 04:57:05;;;;;;;;;;;;;;;-143.90;100.00;55166.81;2086428;28;20039;-63
2022/04/28 04:58:26;;;;;;;;;;;;;;;-143.90;100.00;55148.94;2084053;28;19920;-64
2022/04/28 04:59:48;;;;;;;;;;;;;;;-143.90;100.00;55150.94;2085700;28;19927;-63
2022/04/28 05:01:09;;;;;;;;;;;;;;;-143.90;100.00;55200.56;2084770;28;19943;-63
2022/04/28 05:02:29;;;;;;;;;;;;;;;-143.90;100.00;55186.69;2092238;28;19930;-63
2022/04/28 05:04:16;;;;;;;;;;;;;;;-143.90;100.00;55166.81;2096562;28;19964;-64
2022/04/28 05:06:05;;;;;;;;;;;;;;;-143.90;100.00;55150.94;2091826;28;19927;-65
2022/04/28 05:07:34;;;;;;;;;;;;;;;-143.90;100.00;55158.88;2096621;28;19920;-65
2022/04/28 05:08:55;;;;;;;;;;;;;;;-143.90;100.00;55174.75;2095865;28;19928;-65
2022/04/28 05:10:15;;;;;;;;;;;;;;;-143.90;100.00;55166.81;2088303;28;20007;-65
2022/04/28 05:11:36;;;;;;;;;;;;;;;-143.90;100.00;55154.91;2082880;28;20412;-65
2022/04/28 05:13:04;;;;;;;;;;;;;;;-143.90;100.00;55182.69;2092760;28;19995;-65
2022/04/28 05:14:37;;;;;;;;;;;;;;;-143.90;100.00;55133.06;2087432;28;19955;-65
2022/04/28 05:15:58;;;;;;;;;;;;;;;-143.90;100.00;55139.03;2092861;28;19927;-66
2022/04/28 05:17:32;;;;;;;;;;;;;;;-143.90;100.00;55164.84;2087803;28;20020;-65
2022/04/28 05:19:05;;;;;;;;;;;;;;;-143.90;100.00;55160.84;2086076;28;20498;-66
2022/04/28 05:20:50;;;;;;;;;;;;;;;-143.90;100.00;55150.94;2087448;28;19927;-66
2022/04/28 05:22:40;;;;;;;;;;;;;;;-143.90;100.00;55162.84;2096295;28;19935;-66
2022/04/28 05:24:20;;;;;;;;;;;;;;;-143.90;100.00;55158.88;2094665;28;19966;-65
2022/04/28 05:25:59;;;;;;;;;;;;;;;-143.90;100.00;55143.00;2095633;28;19935;-66
2022/04/28 05:27:38;;;;;;;;;;;;;;;-143.90;100.00;55131.06;2095097;28;19926;-65
2022/04/28 05:29:18;;;;;;;;;;;;;;;-143.90;100.00;55143.00;2096403;28;20443;-66
2022/04/28 05:30:57;;;;;;;;;;;;;;;-143.90;100.00;55162.84;2095468;28;20417;-66
2022/04/28 05:32:29;;;;;;;;;;;;;;;-143.90;100.00;55111.22;2089031;28;19920;-65
2022/04/28 05:34:08;;;;;;;;;;;;;;;-143.90;100.00;55127.09;2096203;28;19916;-63
2022/04/28 05:35:40;;;;;;;;;;;;;;;-143.90;100.00;55137.03;2096346;28;19931;-63
2022/04/28 05:37:01;;;;;;;;;;;;;;;-143.90;100.00;55135.03;2096536;28;20043;-63
2022/04/28 05:38:21;;;;;;;;;;;;;;;-143.90;100.00;55144.97;2087909;28;19936;-63
2022/04/28 05:39:44;;;;;;;;;;;;;;;-143.90;100.00;55139.03;2092926;28;19916;-63
2022/04/28 05:41:05;;;;;;;;;;;;;;;-143.90;100.00;55135.03;2096533;28;19926;-63
2022/04/28 05:45:48;;;;;;;;;;;;;;;-143.90;100.00;55135.03;2095396;28;19939;-63
2022/04/28 05:47:10;;;;;;;;;;;;;;;-143.90;100.00;55154.91;2088957;28;20004;-63
2022/04/28 05:48:31;;;;;;;;;;;;;;;-143.90;100.00;55158.88;2093090;28;19916;-64
2022/04/28 05:49:52;;;;;;;;;;;;;;;-143.90;100.00;55135.03;2088551;28;19920;-64
2022/04/28 05:51:13;;;;;;;;;;;;;;;-143.90;100.00;55115.19;2084423;28;19920;-63
2022/04/28 05:52:35;;;;;;;;;;;;;;;-143.90;100.00;55146.97;2087366;28;19921;-63
2022/04/28 05:53:57;;;;;;;;;;;;;;;-143.90;100.00;55160.84;2085510;28;20000;-64
2022/04/28 05:55:18;;;;;;;;;;;;;;;-143.90;100.00;55127.09;2085213;28;19920;-64
2022/04/28 05:56:39;;;;;;;;;;;;;;;-143.90;100.00;55083.41;2086988;28;20561;-64
2022/04/28 05:58:04;;;;;;;;;;;;;;;-143.90;100.00;55115.19;2093556;28;19940;-64
2022/04/28 05:59:26;;;;;;;;;;;;;;;-143.90;100.00;55144.97;2088381;28;19913;-64
2022/04/28 06:01:07;;;;;;;;;;;;;;;-143.90;100.00;55152.91;2095875;28;19931;-64
2022/04/28 06:02:31;;;;;;;;;;;;;;;-143.90;100.00;55101.28;2087302;28;20408;-64
2022/04/28 06:03:52;;;;;;;;;;;;;;;-143.90;100.00;55135.03;2086191;28;19922;-64
2022/04/28 06:05:13;;;;;;;;;;;;;;;-143.90;100.00;55144.97;2090901;28;19924;-64
2022/04/28 06:06:34;;;;;;;;;;;;;;;-143.90;100.00;55119.16;2087022;28;19939;-63
2022/04/28 06:07:56;;;;;;;;;;;;;;;-143.90;100.00;55117.19;2093296;28;19931;-64
2022/04/28 06:09:17;;;;;;;;;;;;;;;-143.90;100.00;55115.19;2087597;28;19928;-63
2022/04/28 06:10:39;;;;;;;;;;;;;;;-143.90;100.00;55135.03;2092988;28;19920;-64
2022/04/28 06:12:00;;;;;;;;;;;;;;;-143.90;100.00;55127.09;2086100;28;19925;-64
2022/04/28 06:13:32;;;;;;;;;;;;;;;-143.90;100.00;55121.16;2085278;28;19953;-64
2022/04/28 06:15:12;;;;;;;;;;;;;;;-143.90;98.83;55109.22;2095181;28;19963;-64
2022/04/28 06:16:39;;;;;;;;;;;;;;;-143.90;97.23;55119.16;2086881;28;19950;-64
2022/04/28 06:18:09;;;;;;;;;;;;;;;-143.90;99.48;55103.28;2086601;28;19925;-64
2022/04/28 06:19:30;;;;;;;;;;;;;;;-143.90;98.59;55158.88;2087115;28;19920;-64
2022/04/28 06:21:09;;;;;;;;;;;;;;;-143.90;95.86;55141.00;2094466;28;19934;-63
2022/04/28 06:22:34;;;;;;;;;;;;;;;-143.90;92.47;55093.34;2094309;28;19979;-64
2022/04/28 06:23:54;;;;;;;;;;;;;;;-143.90;93.29;55097.31;2085343;28;19952;-64
2022/04/28 06:25:15;;;;;;;;;;;;;;;-143.90;93.28;55131.06;2083888;28;20353;-63
2022/04/28 06:26:40;;;;;;;;;;;;;;;-143.90;92.63;55158.88;2092519;28;19920;-64
2022/04/28 06:28:01;;;;;;;;;;;;;;;-143.90;89.79;55111.22;2095278;28;19924;-64
2022/04/28 06:29:22;;;;;;;;;;;;;;;-143.90;91.23;55146.97;2086961;28;19925;-64
2022/04/28 06:30:43;;;;;;;;;;;;;;;-143.90;88.58;55107.25;2089678;28;20607;-64
2022/04/28 06:32:30;;;;;;;;;;;;;;;-143.90;89.08;55099.31;2088010;28;20670;-64
2022/04/28 06:34:13;;;;;;;;;;;;;;;-143.90;93.15;55107.25;2087112;28;20003;-64
2022/04/28 06:35:36;;;;;;;;;;;;;;;-143.90;89.38;55111.22;2088427;28;19993;-64
2022/04/28 06:36:57;;;;;;;;;;;;;;;-143.90;86.88;55139.03;2088272;28;20539;-64
2022/04/28 06:38:18;;;;;;;;;;;;;;;-143.90;84.65;55148.94;2085308;28;19921;-64
2022/04/28 06:39:40;;;;;;;;;;;;;;;-143.90;80.83;55141.00;2086954;28;19921;-64
2022/04/28 06:41:01;;;;;;;;;;;;;;;-143.90;79.73;55071.50;2092065;28;19980;-64
2022/04/28 06:42:22;;;;;;;;;;;;;;;-143.90;79.65;55103.28;2087145;28;20411;-64
2022/04/28 06:44:01;;;;;;;;;;;;;;;-143.90;79.17;55119.16;2095461;28;19920;-64
2022/04/28 06:45:25;;;;;;;;;;;;;;;-143.90;81.40;55079.44;2096008;28;19913;-64
2022/04/28 06:46:55;;;;;;;;;;;;;;;-143.90;77.63;55111.22;2096905;28;19920;-64
2022/04/28 06:48:41;;;;;;;;;;;;;;;-143.90;79.85;55097.31;2096562;28;19920;-64
2022/04/28 06:50:20;;;;;;;;;;;;;;;-143.90;78.46;55123.13;2095531;28;19927;-64
2022/04/28 06:52:13;;;;;;;;;;;;;;;-143.90;77.35;55123.13;2096217;28;19917;-64
2022/04/28 06:53:52;;;;;;;;;;;;;;;-143.90;72.55;55099.31;2086984;28;19920;-64
2022/04/28 06:55:14;;;;;;;;;;;;;;;-143.90;70.30;55067.53;2087420;28;20514;-64
2022/04/28 06:56:36;;;;;;;;;;;;;;;-143.90;68.38;55073.50;2085178;28;19964;-66
2022/04/28 06:58:01;;;;;;;;;;;;;;;-143.90;66.49;55079.44;2086883;28;20434;-66
2022/04/28 06:59:28;;;;;;;;;;;;;;;-143.90;66.33;55075.47;2086621;28;19946;-66
2022/04/28 07:00:49;;;;;;;;;;;;;;;-143.90;68.52;55107.25;2085727;28;19948;-66
2022/04/28 07:02:12;;;;;;;;;;;;;;;-143.90;68.40;55079.44;2092607;28;19920;-67
2022/04/28 07:03:35;;;;;;;;;;;;;;;-143.90;68.61;55071.50;2086829;28;19932;-66
2022/04/28 07:04:56;;;;;;;;;;;;;;;-143.90;71.88;55095.34;2086999;28;20387;-66
2022/04/28 07:06:19;;;;;;;;;;;;;;;-143.90;66.15;55137.03;2087863;28;19924;-66
2022/04/28 07:07:40;;;;;;;;;;;;;;;-143.90;63.20;55023.84;2087359;28;19923;-66
2022/04/28 07:09:11;;;;;;;;;;;;;;;-143.90;60.62;55025.84;2096797;28;20376;-66
2022/04/28 07:10:33;;;;;;;;;;;;;;;-143.90;57.48;55059.59;2088198;28;20292;-64
2022/04/28 07:11:54;;;;;;;;;;;;;;;-143.90;55.14;55019.88;2089699;28;19924;-65
2022/04/28 07:13:50;;;;;;;;;;;;;;;-143.90;54.49;55047.69;2098042;28;19929;-64
2022/04/28 07:15:39;;;;;;;;;;;;;;;-143.90;53.55;55071.50;2097814;28;19924;-64
2022/04/28 07:17:18;;;;;;;;;;;;;;;-143.90;55.27;55067.53;2096675;28;19924;-64
2022/04/28 07:18:50;;;;;;;;;;;;;;;-143.90;55.59;55067.53;2089355;28;19916;-64
2022/04/28 07:20:11;;;;;;;;;;;;;;;-143.90;55.15;55071.50;2086733;28;19920;-64
2022/04/28 07:21:32;;;;;;;;;;;;;;;-143.90;54.99;55075.47;2085997;28;19920;-64
2022/04/28 07:22:54;;;;;;;;;;;;;;;-143.90;53.73;55043.72;2088881;28;20438;-64
2022/04/28 07:24:14;;;;;;;;;;;;;;;-143.90;54.75;55053.63;2089743;28;19967;-64
2022/04/28 07:25:36;;;;;;;;;;;;;;;-143.90;54.19;55103.28;2088653;28;20907;-65
2022/04/28 07:26:56;;;;;;;;;;;;;;;-143.90;54.72;55067.53;2089950;28;19948;-64